Time;durP1;ratioP1;P1;durP2;ratioP2;P2;SDS_P1;SDS_P2;PMS_P1;PMS_P2;Temp;Humidity;BMP_temperature;BMP_pressure;BME280_temperature;BME280_humidity;BME280_pressure;Samples;Min_cycle;Max_cycle;Signal;HPM_P1;HPM_P2
2023/10/04 00:00:19;;;;;;;4.87;3.00;;;15.80;99.90;;;;;;5021024;28;20419;-68
2023/10/04 00:02:46;;;;;;;8.53;3.87;;;15.70;99.90;;;;;;5020845;28;20450;-69
2023/10/04 00:05:19;;;;;;;9.93;3.00;;;15.70;99.90;;;;;;5019279;28;20785;-69
2023/10/04 00:07:50;;;;;;;4.73;2.93;;;15.70;99.90;;;;;;5021405;28;21394;-68
2023/10/04 00:10:16;;;;;;;5.20;3.00;;;15.80;99.90;;;;;;5020379;28;20497;-68
2023/10/04 00:12:43;;;;;;;4.43;2.93;;;15.70;99.90;;;;;;5024083;28;20528;-67
2023/10/04 00:15:11;;;;;;;6.40;3.40;;;15.70;99.90;;;;;;5022029;28;20449;-68
2023/10/04 00:17:40;;;;;;;7.87;3.20;;;15.80;99.90;;;;;;5025053;28;20427;-68
2023/10/04 00:20:08;;;;;;;4.77;3.00;;;15.80;99.90;;;;;;5022756;28;20820;-68
2023/10/04 00:22:36;;;;;;;5.30;3.27;;;15.70;99.90;;;;;;5025026;28;20451;-69
2023/10/04 00:25:03;;;;;;;8.17;3.27;;;15.70;99.90;;;;;;5022721;28;20492;-69
2023/10/04 00:27:30;;;;;;;5.93;3.13;;;15.60;99.90;;;;;;5024435;28;20840;-69
2023/10/04 00:29:56;;;;;;;4.87;2.70;;;15.60;99.90;;;;;;5025635;28;20435;-69
2023/10/04 00:32:22;;;;;;;4.90;2.87;;;15.60;99.90;;;;;;5021496;28;20482;-69
2023/10/04 00:34:47;;;;;;;6.67;3.20;;;15.50;99.90;;;;;;5019766;28;20534;-69
2023/10/04 00:37:15;;;;;;;8.47;3.17;;;15.60;99.90;;;;;;5025523;28;20189;-70
2023/10/04 00:39:41;;;;;;;5.70;2.73;;;15.60;99.90;;;;;;5026064;28;20191;-69
2023/10/04 00:42:06;;;;;;;5.47;2.80;;;15.50;99.90;;;;;;5021720;28;20442;-70
2023/10/04 00:44:35;;;;;;;6.03;3.03;;;15.50;99.90;;;;;;5024202;28;20184;-69
2023/10/04 00:47:05;;;;;;;5.60;2.90;;;15.50;99.90;;;;;;5024407;28;20188;-69
2023/10/04 00:49:32;;;;;;;4.80;3.20;;;15.40;99.90;;;;;;5020299;28;20430;-69
2023/10/04 00:52:03;;;;;;;5.23;3.30;;;15.40;99.90;;;;;;5022114;28;20999;-69
2023/10/04 00:54:30;;;;;;;4.97;2.67;;;15.40;99.90;;;;;;5022916;28;20493;-69
2023/10/04 00:56:56;;;;;;;7.03;3.47;;;15.40;99.90;;;;;;5029549;28;20438;-69
2023/10/04 00:59:21;;;;;;;6.27;3.63;;;15.40;99.90;;;;;;5024763;28;20438;-69
2023/10/04 01:01:48;;;;;;;4.77;2.73;;;15.50;99.90;;;;;;5019207;28;20332;-69
2023/10/04 01:04:14;;;;;;;6.07;3.30;;;15.50;99.90;;;;;;5034663;28;20280;-69
2023/10/04 01:06:41;;;;;;;5.03;2.93;;;15.40;99.90;;;;;;5025988;28;20470;-69
2023/10/04 01:09:06;;;;;;;4.37;3.10;;;15.40;99.90;;;;;;5019341;28;21092;-69
2023/10/04 01:11:34;;;;;;;6.43;2.90;;;15.40;99.90;;;;;;5015955;28;20471;-69
2023/10/04 01:14:09;;;;;;;8.30;3.67;;;15.40;99.90;;;;;;5021817;28;20211;-69
2023/10/04 01:16:41;;;;;;;5.43;3.30;;;15.40;99.90;;;;;;5025427;28;20418;-69
2023/10/04 01:19:07;;;;;;;5.30;3.20;;;15.30;99.90;;;;;;5022794;28;20503;-69
2023/10/04 01:21:33;;;;;;;5.30;3.47;;;15.40;99.90;;;;;;5020629;28;20440;-69
2023/10/04 01:23:58;;;;;;;6.00;2.83;;;15.30;99.90;;;;;;5021285;28;20513;-69
2023/10/04 01:26:26;;;;;;;5.20;3.70;;;15.30;99.90;;;;;;5025842;28;20180;-69
2023/10/04 01:28:52;;;;;;;5.23;3.73;;;15.30;99.90;;;;;;5022525;28;20192;-69
2023/10/04 01:31:19;;;;;;;5.83;3.00;;;15.40;99.90;;;;;;5019884;28;20786;-69
2023/10/04 01:33:44;;;;;;;5.37;3.20;;;15.40;99.90;;;;;;5023130;28;20262;-69
2023/10/04 01:36:10;;;;;;;4.63;2.90;;;15.20;99.90;;;;;;5021151;28;20439;-69
2023/10/04 01:38:35;;;;;;;4.43;2.90;;;15.10;99.90;;;;;;5025717;28;20181;-69
2023/10/04 01:41:03;;;;;;;7.10;3.10;;;14.90;99.90;;;;;;5022945;28;20600;-69
2023/10/04 01:43:29;;;;;;;4.93;2.90;;;15.00;99.90;;;;;;5024399;28;20420;-69
2023/10/04 01:45:57;;;;;;;6.13;3.07;;;14.90;99.90;;;;;;5024990;28;20896;-69
2023/10/04 01:48:24;;;;;;;5.40;3.57;;;14.90;99.90;;;;;;5020933;28;20224;-69
2023/10/04 01:50:53;;;;;;;4.73;3.00;;;14.90;99.90;;;;;;5023447;28;20435;-69
2023/10/04 01:53:25;;;;;;;5.40;3.20;;;14.90;99.90;;;;;;5022237;28;20482;-69
2023/10/04 01:55:51;;;;;;;4.50;3.20;;;14.90;99.90;;;;;;5023303;28;20527;-69
2023/10/04 01:58:23;;;;;;;5.37;3.57;;;14.90;99.90;;;;;;5019774;28;21748;-69
2023/10/04 02:00:51;;;;;;;5.77;3.50;;;14.80;99.90;;;;;;5023854;28;20442;-69
2023/10/04 02:03:17;;;;;;;4.57;3.47;;;14.80;99.90;;;;;;5021127;28;20463;-69
2023/10/04 02:05:43;;;;;;;7.37;4.27;;;14.70;99.90;;;;;;5024747;28;20862;-69
2023/10/04 02:08:12;;;;;;;6.23;3.67;;;14.70;99.90;;;;;;5022312;28;20932;-69
2023/10/04 02:10:41;;;;;;;5.40;3.63;;;14.70;99.90;;;;;;5018758;28;21151;-69
2023/10/04 02:13:08;;;;;;;6.13;3.10;;;14.60;99.90;;;;;;5020612;28;21047;-69
2023/10/04 02:15:38;;;;;;;11.70;3.63;;;14.60;99.90;;;;;;5024630;28;20474;-69
2023/10/04 02:18:04;;;;;;;4.20;3.10;;;14.70;99.90;;;;;;5017209;28;20435;-69
2023/10/04 02:20:34;;;;;;;6.10;3.50;;;14.60;99.90;;;;;;5036822;28;20433;-69
2023/10/04 02:23:02;;;;;;;5.97;3.90;;;14.70;99.90;;;;;;5021112;28;21002;-69
2023/10/04 02:25:28;;;;;;;6.60;3.53;;;14.70;99.90;;;;;;5023557;28;20441;-69
2023/10/04 02:27:59;;;;;;;5.50;3.20;;;14.60;99.90;;;;;;5019762;28;20423;-69
2023/10/04 02:30:26;;;;;;;5.00;3.13;;;14.50;99.90;;;;;;5020180;28;20427;-69
2023/10/04 02:32:53;;;;;;;6.57;3.60;;;14.50;99.90;;;;;;5018921;28;20550;-70
2023/10/04 02:35:33;;;;;;;4.53;2.87;;;14.50;99.90;;;;;;5021694;28;20455;-69
2023/10/04 02:38:00;;;;;;;4.70;3.40;;;14.60;99.90;;;;;;5037186;28;20509;-69
2023/10/04 02:40:33;;;;;;;5.90;3.37;;;14.50;99.90;;;;;;5023198;28;20438;-69
2023/10/04 02:42:59;;;;;;;5.97;4.50;;;14.40;99.90;;;;;;5022543;28;20463;-69
2023/10/04 02:45:26;;;;;;;6.70;3.83;;;14.30;99.90;;;;;;5020371;28;20922;-69
2023/10/04 02:47:53;;;;;;;5.27;3.07;;;14.20;99.90;;;;;;5020634;28;20791;-69
2023/10/04 02:50:20;;;;;;;7.10;4.07;;;14.30;99.90;;;;;;5022430;28;20649;-69
2023/10/04 02:52:46;;;;;;;6.63;3.57;;;14.30;99.90;;;;;;5020178;28;20479;-67
2023/10/04 02:55:17;;;;;;;6.13;3.13;;;14.40;99.90;;;;;;5019122;28;20442;-67
2023/10/04 02:57:44;;;;;;;8.50;4.73;;;14.40;99.90;;;;;;5021375;28;20450;-68
2023/10/04 03:00:16;;;;;;;8.23;4.53;;;14.30;99.90;;;;;;5018333;28;20568;-68
2023/10/04 03:02:47;;;;;;;12.30;6.47;;;14.30;99.90;;;;;;5016210;28;20455;-68
2023/10/04 03:05:15;;;;;;;12.47;7.60;;;14.10;99.90;;;;;;5020866;28;20426;-68
2023/10/04 03:07:41;;;;;;;16.07;8.43;;;14.10;99.90;;;;;;5022278;28;20524;-68
2023/10/04 03:10:10;;;;;;;17.47;8.23;;;14.10;99.90;;;;;;5026281;28;20423;-68
2023/10/04 03:12:36;;;;;;;9.87;6.73;;;14.10;99.90;;;;;;5016274;28;20987;-68
2023/10/04 03:15:01;;;;;;;9.20;5.10;;;14.10;99.90;;;;;;5021840;28;20498;-68
2023/10/04 03:17:27;;;;;;;8.80;5.90;;;14.10;99.90;;;;;;5014950;28;20226;-69
2023/10/04 03:19:53;;;;;;;9.23;5.60;;;14.10;99.90;;;;;;5021004;28;20605;-68
2023/10/04 03:22:22;;;;;;;6.73;4.20;;;14.00;99.90;;;;;;5018258;28;20681;-68
2023/10/04 03:24:51;;;;;;;8.17;4.20;;;14.00;99.90;;;;;;5019592;28;20196;-68
2023/10/04 03:27:21;;;;;;;7.00;3.73;;;13.90;99.90;;;;;;5023141;28;20435;-68
2023/10/04 03:29:52;;;;;;;11.63;3.67;;;13.90;99.90;;;;;;5022298;28;20420;-68
2023/10/04 03:32:18;;;;;;;7.80;3.60;;;14.00;99.90;;;;;;5020113;28;20546;-68
2023/10/04 03:34:44;;;;;;;8.23;4.03;;;14.00;99.90;;;;;;5021499;28;20443;-68
2023/10/04 03:37:14;;;;;;;6.20;4.13;;;14.10;99.90;;;;;;5023158;28;20427;-68
2023/10/04 03:39:40;;;;;;;5.70;4.37;;;14.00;99.90;;;;;;5020100;28;20629;-68
2023/10/04 03:42:05;;;;;;;4.93;3.60;;;14.00;99.90;;;;;;5022170;28;20452;-68
2023/10/04 03:44:31;;;;;;;6.23;3.90;;;14.00;99.90;;;;;;5032141;28;20183;-68
2023/10/04 03:46:57;;;;;;;7.40;3.73;;;14.00;99.90;;;;;;5020875;28;20422;-69
2023/10/04 03:49:24;;;;;;;4.37;3.00;;;14.00;99.90;;;;;;5021889;28;20211;-68
2023/10/04 03:51:52;;;;;;;7.03;3.50;;;13.90;99.90;;;;;;5019065;28;20197;-69
2023/10/04 03:54:18;;;;;;;6.27;3.57;;;14.00;99.90;;;;;;5017186;28;20419;-68
2023/10/04 03:56:44;;;;;;;6.33;3.53;;;14.00;99.90;;;;;;5022372;28;20415;-69
2023/10/04 03:59:11;;;;;;;6.17;3.67;;;14.00;99.90;;;;;;5019180;28;20423;-69
2023/10/04 04:01:37;;;;;;;4.50;3.67;;;14.00;99.90;;;;;;5016022;28;20866;-68
2023/10/04 04:04:14;;;;;;;8.00;3.47;;;13.90;99.90;;;;;;5022016;28;20430;-68
2023/10/04 04:06:40;;;;;;;10.37;3.77;;;14.00;99.90;;;;;;5016384;28;20430;-68
2023/10/04 04:09:09;;;;;;;6.43;3.70;;;14.00;99.90;;;;;;5017498;28;20447;-68
2023/10/04 04:11:36;;;;;;;10.10;3.20;;;13.90;99.90;;;;;;5020317;28;21030;-68
2023/10/04 04:14:01;;;;;;;6.37;2.80;;;13.90;99.90;;;;;;5019286;28;20443;-68
2023/10/04 04:16:27;;;;;;;5.00;3.40;;;14.00;99.90;;;;;;5020791;28;20449;-68
2023/10/04 04:18:54;;;;;;;4.87;3.50;;;14.00;99.90;;;;;;5022311;28;20184;-68
2023/10/04 04:21:20;;;;;;;5.83;3.53;;;13.90;99.90;;;;;;5015016;28;20228;-69
2023/10/04 04:23:46;;;;;;;6.13;3.47;;;13.90;99.90;;;;;;5019282;28;20470;-69
2023/10/04 04:26:12;;;;;;;8.30;3.60;;;13.80;99.90;;;;;;5019879;28;20508;-68
2023/10/04 04:28:38;;;;;;;8.07;4.10;;;13.80;99.90;;;;;;5017322;28;20705;-68
2023/10/04 04:31:19;;;;;;;4.20;2.97;;;13.80;99.90;;;;;;5033212;28;20431;-68
2023/10/04 04:33:45;;;;;;;5.50;2.97;;;13.90;99.90;;;;;;5017625;28;20208;-68
2023/10/04 04:36:26;;;;;;;6.97;3.73;;;13.90;99.90;;;;;;5022739;28;20992;-68
2023/10/04 04:38:53;;;;;;;5.40;3.80;;;13.80;99.90;;;;;;5022580;28;20188;-68
2023/10/04 04:41:25;;;;;;;5.00;3.60;;;13.80;99.90;;;;;;5020464;28;20782;-69
2023/10/04 04:43:52;;;;;;;8.00;3.30;;;13.70;99.90;;;;;;5021412;28;20497;-69
2023/10/04 04:46:18;;;;;;;6.10;3.17;;;13.80;99.90;;;;;;5018609;28;20428;-69
2023/10/04 04:48:45;;;;;;;5.07;3.30;;;13.70;99.90;;;;;;5019073;28;20461;-69
2023/10/04 04:51:11;;;;;;;5.17;3.23;;;13.70;99.90;;;;;;5022154;28;20500;-69
2023/10/04 04:53:42;;;;;;;5.47;3.10;;;13.80;99.90;;;;;;5019745;28;20573;-69
2023/10/04 04:56:14;;;;;;;5.30;3.83;;;13.80;99.90;;;;;;5022461;28;20267;-68
2023/10/04 04:58:47;;;;;;;5.07;3.23;;;13.70;99.90;;;;;;5017477;28;20439;-69
2023/10/04 05:01:13;;;;;;;10.40;3.63;;;13.80;99.90;;;;;;5024383;28;20450;-68
2023/10/04 05:03:42;;;;;;;8.20;3.87;;;13.80;99.90;;;;;;5021830;28;20490;-69
2023/10/04 05:06:14;;;;;;;6.87;3.33;;;13.80;99.90;;;;;;5026579;28;20430;-68
2023/10/04 05:08:40;;;;;;;6.10;3.47;;;13.80;99.90;;;;;;5021672;28;20437;-68
2023/10/04 05:11:07;;;;;;;6.83;3.47;;;13.70;99.90;;;;;;5021241;28;20459;-68
2023/10/04 05:13:33;;;;;;;7.07;3.87;;;13.80;99.90;;;;;;5021574;28;20505;-68
2023/10/04 05:16:00;;;;;;;6.83;3.63;;;13.80;99.90;;;;;;5022598;28;20435;-68
2023/10/04 05:18:26;;;;;;;5.90;3.50;;;13.80;99.90;;;;;;5026087;28;20434;-68
2023/10/04 05:20:54;;;;;;;6.60;3.50;;;13.80;99.90;;;;;;5027383;28;20506;-68
2023/10/04 05:23:31;;;;;;;5.87;3.40;;;13.80;99.90;;;;;;5016072;28;20462;-68
2023/10/04 05:25:59;;;;;;;5.57;3.40;;;13.80;99.90;;;;;;5027722;28;20434;-68
2023/10/04 05:28:25;;;;;;;4.63;3.00;;;13.80;99.90;;;;;;5021827;28;20422;-68
2023/10/04 05:30:51;;;;;;;4.60;3.00;;;13.80;99.90;;;;;;5023855;28;21268;-68
2023/10/04 05:33:21;;;;;;;5.00;3.87;;;13.70;99.90;;;;;;5020903;28;20247;-68
2023/10/04 05:35:48;;;;;;;8.73;3.40;;;13.70;99.90;;;;;;5023621;28;20435;-68
2023/10/04 05:38:17;;;;;;;6.10;3.40;;;13.70;99.90;;;;;;5024659;28;20424;-68
2023/10/04 05:40:44;;;;;;;8.30;3.87;;;13.70;99.90;;;;;;5022400;28;20431;-68
2023/10/04 05:43:12;;;;;;;7.30;3.90;;;13.80;99.90;;;;;;5021334;28;20485;-69
2023/10/04 05:45:37;;;;;;;9.60;3.40;;;13.90;99.90;;;;;;5021864;28;20427;-69
2023/10/04 05:48:05;;;;;;;4.80;3.03;;;13.90;99.90;;;;;;5024281;28;20437;-67
2023/10/04 05:50:34;;;;;;;5.27;3.40;;;13.90;99.90;;;;;;5024384;28;20435;-69
2023/10/04 05:53:08;;;;;;;13.13;3.80;;;13.80;99.90;;;;;;5019813;28;20462;-68
2023/10/04 05:55:35;;;;;;;7.30;3.77;;;13.80;99.90;;;;;;5022627;28;20505;-68
2023/10/04 05:58:02;;;;;;;4.70;3.33;;;13.80;99.90;;;;;;5022217;28;20462;-69
2023/10/04 06:00:28;;;;;;;7.47;3.27;;;13.80;99.90;;;;;;5023156;28;20423;-69
2023/10/04 06:02:55;;;;;;;7.10;3.57;;;13.90;99.90;;;;;;5023438;28;20465;-69
2023/10/04 06:05:22;;;;;;;8.80;3.33;;;13.90;99.90;;;;;;5017720;28;20749;-69
2023/10/04 06:07:48;;;;;;;6.10;3.40;;;13.90;99.90;;;;;;5018995;28;20427;-69
2023/10/04 06:10:16;;;;;;;8.63;3.50;;;14.00;99.90;;;;;;5019692;28;20435;-69
2023/10/04 06:12:42;;;;;;;7.60;3.83;;;14.00;99.90;;;;;;5018654;28;20463;-69
2023/10/04 06:15:13;;;;;;;5.47;3.20;;;14.00;99.90;;;;;;5019657;28;20843;-68
2023/10/04 06:17:42;;;;;;;7.97;3.50;;;14.00;99.90;;;;;;5020497;28;20423;-68
2023/10/04 06:20:23;;;;;;;14.30;3.63;;;14.00;99.90;;;;;;5022625;28;20410;-68
2023/10/04 06:22:53;;;;;;;6.07;4.00;;;13.90;99.90;;;;;;5016005;28;20454;-69
2023/10/04 06:25:21;;;;;;;5.90;3.83;;;13.90;99.90;;;;;;5021337;28;20583;-68
2023/10/04 06:27:47;;;;;;;7.20;3.70;;;13.80;99.90;;;;;;5017801;28;20454;-69
2023/10/04 06:30:13;;;;;;;10.03;3.60;;;13.90;99.90;;;;;;5018845;28;21091;-68
2023/10/04 06:32:39;;;;;;;12.23;3.30;;;14.00;99.90;;;;;;5018545;28;20220;-68
2023/10/04 06:35:08;;;;;;;8.57;3.30;;;14.00;99.90;;;;;;5016581;28;20215;-69
2023/10/04 06:37:34;;;;;;;6.60;3.53;;;14.00;99.90;;;;;;5021697;28;20415;-68
2023/10/04 06:40:01;;;;;;;6.17;4.10;;;14.10;99.90;;;;;;5032274;28;20435;-68
2023/10/04 06:42:26;;;;;;;8.03;3.83;;;14.20;99.90;;;;;;5022065;28;20443;-68
2023/10/04 06:44:52;;;;;;;5.23;3.27;;;14.10;99.90;;;;;;5019714;28;21022;-68
2023/10/04 06:47:18;;;;;;;4.77;3.37;;;14.00;99.90;;;;;;5020697;28;20176;-68
2023/10/04 06:49:43;;;;;;;7.27;4.03;;;14.00;99.90;;;;;;5034724;28;20185;-68
2023/10/04 06:52:09;;;;;;;6.57;3.43;;;14.00;99.90;;;;;;5010088;28;20596;-67
2023/10/04 06:54:34;;;;;;;6.20;3.80;;;14.00;99.90;;;;;;5018793;28;20598;-67
2023/10/04 06:57:00;;;;;;;4.77;3.40;;;14.10;99.90;;;;;;5016667;28;20280;-68
2023/10/04 06:59:26;;;;;;;6.67;4.07;;;14.20;99.90;;;;;;5015484;28;20553;-68
2023/10/04 07:01:52;;;;;;;6.17;3.70;;;14.30;99.90;;;;;;5018265;28;20454;-67
2023/10/04 07:04:18;;;;;;;6.30;4.20;;;14.40;99.90;;;;;;5020557;28;20180;-67
2023/10/04 07:06:44;;;;;;;7.13;3.97;;;14.40;99.90;;;;;;5021195;28;20181;-67
2023/10/04 07:09:10;;;;;;;8.03;3.40;;;14.50;99.90;;;;;;5020143;28;20947;-67
2023/10/04 07:11:36;;;;;;;5.30;3.80;;;14.50;99.90;;;;;;5015162;28;20572;-67
2023/10/04 07:14:04;;;;;;;8.27;4.30;;;14.60;99.90;;;;;;5018229;28;20458;-68
2023/10/04 07:16:30;;;;;;;10.33;3.87;;;14.60;99.90;;;;;;5009477;28;20828;-68
2023/10/04 07:18:56;;;;;;;7.40;3.40;;;14.60;99.90;;;;;;5020941;28;20435;-66
2023/10/04 07:21:23;;;;;;;6.43;3.60;;;14.60;99.90;;;;;;5015311;28;20443;-67
2023/10/04 07:23:48;;;;;;;6.27;4.00;;;14.70;99.90;;;;;;5018648;28;20439;-67
2023/10/04 07:26:14;;;;;;;6.47;3.33;;;14.70;99.90;;;;;;5018043;28;20427;-66
2023/10/04 07:28:41;;;;;;;11.50;3.57;;;14.70;99.90;;;;;;5010257;28;20672;-67
2023/10/04 07:31:07;;;;;;;5.10;3.10;;;14.70;99.90;;;;;;5010760;28;20439;-67
2023/10/04 07:33:33;;;;;;;7.20;3.60;;;14.70;99.90;;;;;;5017339;28;20475;-67
2023/10/04 07:35:59;;;;;;;8.87;3.50;;;14.70;99.90;;;;;;5017506;28;20442;-67
2023/10/04 07:38:25;;;;;;;5.40;3.30;;;14.80;99.90;;;;;;5019095;28;20231;-67
2023/10/04 07:40:50;;;;;;;6.10;3.77;;;14.90;99.90;;;;;;5019226;28;20435;-67
2023/10/04 07:43:16;;;;;;;9.20;6.73;;;14.90;99.90;;;;;;5016878;28;20265;-68
2023/10/04 07:45:41;;;;;;;6.07;3.50;;;14.90;99.90;;;;;;5015745;28;20256;-68
2023/10/04 07:48:10;;;;;;;5.70;3.17;;;14.90;99.90;;;;;;5018646;28;20184;-68
2023/10/04 07:50:36;;;;;;;10.00;5.20;;;15.00;99.90;;;;;;5019086;28;20181;-68
2023/10/04 07:53:06;;;;;;;5.73;3.37;;;15.00;99.90;;;;;;5018831;28;20478;-68
2023/10/04 07:55:33;;;;;;;8.47;4.13;;;15.10;99.90;;;;;;5020949;28;20188;-68
2023/10/04 07:58:06;;;;;;;5.97;3.70;;;15.10;99.90;;;;;;5019511;28;20439;-68
2023/10/04 08:00:35;;;;;;;7.30;4.10;;;15.20;99.90;;;;;;5019368;28;20876;-68
2023/10/04 08:03:01;;;;;;;6.20;3.50;;;15.30;99.90;;;;;;5017779;28;20514;-68
2023/10/04 08:05:31;;;;;;;9.10;3.20;;;15.30;99.90;;;;;;5018887;28;20479;-68
2023/10/04 08:08:00;;;;;;;5.90;3.60;;;15.30;99.90;;;;;;5015321;28;20574;-68
2023/10/04 08:10:29;;;;;;;4.87;3.40;;;15.40;99.90;;;;;;5020595;28;20438;-69
2023/10/04 08:12:59;;;;;;;5.77;3.47;;;15.40;99.90;;;;;;5012841;28;20466;-69
2023/10/04 08:15:26;;;;;;;5.70;3.70;;;15.50;99.90;;;;;;5018170;28;20954;-68
2023/10/04 08:17:52;;;;;;;5.97;4.07;;;15.60;99.90;;;;;;5019893;28;20514;-68
2023/10/04 08:20:23;;;;;;;8.57;4.47;;;15.70;99.90;;;;;;5021953;28;20433;-69
2023/10/04 08:22:49;;;;;;;6.10;4.00;;;15.70;99.90;;;;;;5009917;28;20470;-68
2023/10/04 08:25:17;;;;;;;6.53;4.07;;;15.70;99.90;;;;;;5017213;28;20427;-68
2023/10/04 08:27:44;;;;;;;9.03;3.83;;;15.70;99.90;;;;;;5014430;28;20278;-68
2023/10/04 08:30:11;;;;;;;8.80;4.30;;;15.80;99.90;;;;;;5019173;28;20470;-68
2023/10/04 08:32:38;;;;;;;11.60;3.60;;;15.80;99.90;;;;;;5019999;28;20464;-68
2023/10/04 08:35:04;;;;;;;6.73;3.90;;;15.80;99.90;;;;;;5023160;28;20453;-68
2023/10/04 08:37:30;;;;;;;7.07;3.77;;;15.80;99.90;;;;;;5024177;28;20431;-68
2023/10/04 08:39:56;;;;;;;7.50;4.70;;;15.80;99.90;;;;;;5022061;28;20834;-68
2023/10/04 08:42:25;;;;;;;6.27;4.27;;;15.90;99.90;;;;;;5019633;28;20459;-68
2023/10/04 08:44:52;;;;;;;5.80;3.87;;;15.90;99.90;;;;;;5021525;28;20195;-68
2023/10/04 08:47:17;;;;;;;8.43;3.60;;;16.00;99.90;;;;;;5020586;28;20442;-69
2023/10/04 08:49:50;;;;;;;4.90;3.40;;;16.00;99.90;;;;;;5022426;28;20937;-68
2023/10/04 08:52:22;;;;;;;10.73;4.77;;;16.00;99.90;;;;;;5023588;28;20262;-69
2023/10/04 08:54:52;;;;;;;6.50;3.10;;;16.10;99.90;;;;;;5023715;28;20518;-70
2023/10/04 08:57:21;;;;;;;6.37;3.90;;;16.10;99.90;;;;;;5023442;28;20526;-68
2023/10/04 08:59:49;;;;;;;8.47;3.80;;;16.20;99.90;;;;;;5024071;28;20458;-69
2023/10/04 09:02:15;;;;;;;6.97;3.60;;;16.10;99.90;;;;;;5021487;28;20461;-70
2023/10/04 09:04:42;;;;;;;7.90;3.83;;;16.30;99.90;;;;;;5024365;28;20766;-69
2023/10/04 09:07:11;;;;;;;7.50;3.60;;;16.40;99.90;;;;;;5021137;28;21090;-69
2023/10/04 09:09:40;;;;;;;6.03;3.23;;;16.40;99.90;;;;;;5019605;28;20513;-69
2023/10/04 09:12:09;;;;;;;5.10;3.20;;;16.50;99.90;;;;;;5021690;28;20489;-69
2023/10/04 09:14:37;;;;;;;9.17;3.90;;;16.50;99.90;;;;;;5019672;28;20434;-70
2023/10/04 09:17:05;;;;;;;6.47;3.10;;;16.40;99.90;;;;;;5020660;28;20404;-70
2023/10/04 09:19:32;;;;;;;6.67;3.00;;;16.40;99.90;;;;;;5023166;28;21174;-70
2023/10/04 09:22:06;;;;;;;5.30;2.97;;;16.50;99.90;;;;;;5024063;28;21523;-70
2023/10/04 09:24:34;;;;;;;7.43;2.60;;;16.60;99.90;;;;;;5020912;28;20484;-70
2023/10/04 09:27:01;;;;;;;5.70;2.83;;;16.60;99.90;;;;;;5024821;28;20458;-69
2023/10/04 09:29:35;;;;;;;5.10;2.90;;;16.60;99.90;;;;;;5020015;28;20450;-70
2023/10/04 09:32:03;;;;;;;5.50;2.63;;;16.60;99.90;;;;;;5015416;28;20947;-69
2023/10/04 09:34:30;;;;;;;8.33;3.27;;;16.70;99.90;;;;;;5022741;28;20450;-69
2023/10/04 09:36:56;;;;;;;9.00;3.10;;;16.60;99.90;;;;;;5024257;28;20429;-68
2023/10/04 09:39:32;;;;;;;6.17;2.93;;;16.60;99.90;;;;;;5023432;28;20439;-68
2023/10/04 09:41:59;;;;;;;5.63;2.97;;;16.70;99.90;;;;;;5021973;28;20541;-69
2023/10/04 09:44:30;;;;;;;5.27;3.17;;;16.80;99.90;;;;;;5025754;28;20793;-69
2023/10/04 09:46:59;;;;;;;10.70;3.50;;;16.80;99.90;;;;;;5020117;28;20424;-69
2023/10/04 09:49:28;;;;;;;7.40;3.53;;;16.90;99.90;;;;;;5015523;28;20621;-69
2023/10/04 09:51:55;;;;;;;4.97;3.10;;;16.90;99.90;;;;;;5019388;28;20491;-68
2023/10/04 09:54:24;;;;;;;8.00;2.70;;;17.00;99.90;;;;;;5024608;28;20913;-70
2023/10/04 09:56:52;;;;;;;6.10;2.77;;;17.10;99.90;;;;;;5021673;28;20439;-69
2023/10/04 09:59:20;;;;;;;6.53;3.23;;;17.10;99.90;;;;;;5023031;28;20459;-69
2023/10/04 10:01:55;;;;;;;5.30;2.83;;;17.20;99.90;;;;;;5023384;28;20436;-69
2023/10/04 10:04:28;;;;;;;5.47;2.93;;;17.30;99.90;;;;;;5023369;28;20481;-69
2023/10/04 10:07:10;;;;;;;5.17;2.73;;;17.40;99.90;;;;;;5022407;28;20431;-69
2023/10/04 10:09:59;;;;;;;5.20;2.97;;;17.50;99.90;;;;;;5022801;28;20526;-69
2023/10/04 10:12:30;;;;;;;6.13;2.70;;;17.50;99.90;;;;;;5023481;28;21078;-68
2023/10/04 10:15:00;;;;;;;10.00;3.30;;;17.60;99.90;;;;;;5021513;28;20473;-67
2023/10/04 10:17:27;;;;;;;8.47;2.90;;;17.70;99.90;;;;;;5018890;28;20443;-68
2023/10/04 10:19:55;;;;;;;3.73;2.10;;;17.80;99.90;;;;;;5021960;28;20423;-68
2023/10/04 10:22:21;;;;;;;3.97;2.60;;;17.70;99.90;;;;;;5020202;28;20466;-69
2023/10/04 10:24:55;;;;;;;5.03;2.93;;;17.80;99.90;;;;;;5020677;28;20473;-68
2023/10/04 10:27:23;;;;;;;9.07;3.20;;;17.90;99.90;;;;;;5018463;28;20449;-69
2023/10/04 10:29:50;;;;;;;5.23;3.20;;;18.00;99.90;;;;;;5021451;28;20471;-68
2023/10/04 10:32:22;;;;;;;4.10;2.70;;;18.10;99.90;;;;;;5019055;28;20921;-68
2023/10/04 10:34:52;;;;;;;6.03;2.90;;;18.10;99.90;;;;;;5019391;28;20456;-69
2023/10/04 10:37:22;;;;;;;3.87;2.80;;;18.10;99.90;;;;;;5019086;28;20430;-68
2023/10/04 10:39:50;;;;;;;4.93;2.50;;;17.90;99.90;;;;;;5017100;28;20435;-69
2023/10/04 10:42:16;;;;;;;4.93;2.57;;;17.90;99.90;;;;;;5017744;28;20483;-68
2023/10/04 10:44:42;;;;;;;5.10;2.73;;;17.90;99.90;;;;;;5021122;28;20970;-69
2023/10/04 10:47:12;;;;;;;6.90;2.40;;;17.90;99.90;;;;;;5019233;28;20439;-69
2023/10/04 10:49:40;;;;;;;5.57;2.30;;;17.90;99.90;;;;;;5019542;28;20424;-69
2023/10/04 10:52:44;;;;;;;7.07;3.20;;;17.90;99.90;;;;;;5021438;28;20471;-69
2023/10/04 10:55:18;;;;;;;3.70;2.00;;;18.00;99.90;;;;;;5014613;28;20466;-69
2023/10/04 10:57:45;;;;;;;3.63;2.30;;;18.10;99.90;;;;;;5018628;28;20415;-69
2023/10/04 11:00:13;;;;;;;4.70;2.30;;;18.10;99.90;;;;;;5022149;28;20424;-69
2023/10/04 11:02:39;;;;;;;5.57;2.40;;;18.10;99.90;;;;;;5016344;28;20471;-69
2023/10/04 11:05:06;;;;;;;5.10;2.30;;;18.10;99.90;;;;;;5018045;28;20423;-69
2023/10/04 11:07:32;;;;;;;4.13;2.30;;;18.20;99.90;;;;;;5020957;28;20323;-69
2023/10/04 11:09:58;;;;;;;6.30;3.03;;;18.30;99.90;;;;;;5020992;28;21123;-69
2023/10/04 11:12:25;;;;;;;5.60;2.70;;;18.30;99.90;;;;;;5018821;28;20482;-69
2023/10/04 11:14:51;;;;;;;4.30;2.03;;;18.30;99.90;;;;;;5019819;28;20430;-69
2023/10/04 11:17:20;;;;;;;6.30;2.60;;;18.50;99.90;;;;;;5019827;28;20419;-68
2023/10/04 11:19:46;;;;;;;3.30;2.40;;;18.70;99.90;;;;;;5018782;28;20415;-68
2023/10/04 11:22:14;;;;;;;6.17;2.53;;;18.80;99.90;;;;;;5019322;28;20474;-68
2023/10/04 11:24:40;;;;;;;5.10;2.73;;;19.10;99.90;;;;;;5020054;28;20454;-68
2023/10/04 11:27:08;;;;;;;5.17;2.53;;;19.40;99.90;;;;;;5018946;28;20447;-70
2023/10/04 11:29:34;;;;;;;3.80;2.60;;;19.50;99.90;;;;;;5020559;28;20455;-68
2023/10/04 11:32:00;;;;;;;4.57;2.20;;;19.50;99.90;;;;;;5017976;28;20958;-69
2023/10/04 11:34:26;;;;;;;4.60;2.57;;;19.60;99.90;;;;;;5017994;28;20454;-68
2023/10/04 11:37:01;;;;;;;5.10;2.90;;;19.70;99.90;;;;;;5018027;28;20442;-69
2023/10/04 11:39:34;;;;;;;6.90;3.00;;;19.90;99.90;;;;;;5016309;28;21028;-69
2023/10/04 11:42:04;;;;;;;6.20;3.03;;;19.90;99.90;;;;;;5020495;28;20458;-68
2023/10/04 11:44:33;;;;;;;6.70;2.63;;;20.00;99.90;;;;;;5018996;28;20481;-69
2023/10/04 11:47:03;;;;;;;4.63;2.67;;;20.00;99.90;;;;;;5015812;28;20518;-70
2023/10/04 11:49:32;;;;;;;4.83;2.60;;;20.10;99.90;;;;;;5019807;28;21209;-69
2023/10/04 11:52:00;;;;;;;3.60;2.67;;;20.30;99.90;;;;;;5019260;28;20532;-70
2023/10/04 11:54:46;;;;;;;7.10;2.80;;;20.40;99.90;;;;;;5018218;28;20436;-70
2023/10/04 11:57:23;;;;;;;4.77;2.30;;;20.70;99.90;;;;;;5017094;28;20448;-70
2023/10/04 11:59:48;;;;;;;5.13;2.60;;;21.30;99.90;;;;;;5017179;28;20434;-70
2023/10/04 12:02:14;;;;;;;4.90;2.27;;;21.50;99.90;;;;;;5019320;28;20446;-70
2023/10/04 12:04:39;;;;;;;4.90;3.00;;;21.40;99.90;;;;;;5021819;28;20192;-69
2023/10/04 12:07:06;;;;;;;4.63;2.20;;;21.50;99.90;;;;;;5019714;28;20192;-70
2023/10/04 12:09:34;;;;;;;5.83;2.73;;;22.90;99.90;;;;;;5027201;28;20172;-70
2023/10/04 12:12:05;;;;;;;4.00;2.60;;;25.00;99.90;;;;;;5021864;28;20482;-69
2023/10/04 12:14:34;;;;;;;6.47;2.80;;;26.20;99.90;;;;;;5022832;28;20769;-70
2023/10/04 12:17:04;;;;;;;7.37;2.80;;;26.20;98.10;;;;;;5020258;28;20426;-69
2023/10/04 12:19:37;;;;;;;6.03;3.10;;;25.50;95.70;;;;;;5018884;28;20434;-69
2023/10/04 12:22:08;;;;;;;6.20;2.90;;;24.70;95.90;;;;;;5014689;28;20451;-69
2023/10/04 12:24:39;;;;;;;6.33;2.63;;;24.60;97.40;;;;;;5024770;28;20442;-69
2023/10/04 12:27:08;;;;;;;3.50;2.73;;;25.80;95.90;;;;;;5021021;28;20779;-69
2023/10/04 12:29:34;;;;;;;5.10;2.90;;;27.90;92.50;;;;;;5024346;28;20419;-70
2023/10/04 12:32:00;;;;;;;5.07;2.93;;;28.30;88.10;;;;;;5020362;28;20479;-70
2023/10/04 12:34:27;;;;;;;3.50;2.70;;;29.20;84.00;;;;;;5022199;28;20431;-69
2023/10/04 12:36:53;;;;;;;5.93;3.03;;;30.00;79.20;;;;;;5023382;28;20169;-69
2023/10/04 12:39:21;;;;;;;4.37;2.97;;;30.40;74.10;;;;;;5023512;28;20944;-69
2023/10/04 12:41:47;;;;;;;6.90;3.07;;;30.60;70.00;;;;;;5019253;28;20185;-69
2023/10/04 12:44:13;;;;;;;3.30;2.47;;;30.50;67.70;;;;;;5022222;28;20409;-70
2023/10/04 12:46:39;;;;;;;7.33;5.30;;;30.60;67.30;;;;;;5021446;28;20427;-69
2023/10/04 12:49:07;;;;;;;5.03;2.97;;;30.60;63.30;;;;;;5023158;28;20184;-69